Augusta State Airport

Airport
ICAO code: 
KAUG
Summary
ICAO Region: 
NAM
Territory: 
Location: 
Augusta, Maine,
Serving: 
Augusta, Maine
Coordinates: 
Aerial View: 
44° 19' 5.902" N, 69° 47' 42.405" W
Airport CFIT: 
Altimeter Temperature Error Correction
Airport WX: 
Cumulonimbus
Metar
Observation
KAUG 021453Z AUTO 00000KT 2 1/2SM -FZRA BR OVC009 01/M01 A2983 RMK AO2 CIG 005V014 SLP105 P0003 60006 I1004 I3006 T00061006 58045
Station
Augusta, Augusta State Airport
Date/Time
2021-12-02 14:53:00
Wind direction
Wind speed
00 kts
Lowest cloud amount
overcast
Temperature
0.6°C
Dew point
-0.6°C
Humidity
91%
Weather condition
light freezing

Description

Augusta State Airport is a public use airport located 2 km northwest of the central business district of Augusta, a city in Kennebec County, Maine.

Climatology

Humid Continental climate (Köppen climate classification Dfb) - Variable weather patterns and a large seasonal temperature variance. Summers are often warm and humid with frequent thunderstorms and winters can be very cold with frequent snowfall and persistent snow cover.

Runways

Designator Length Width Surface Rops
8/26 824 23 ASP Yes/Yes
17/35 1524 46 ASP Yes/Yes
Airport map: 
Aerial View: 

SKYbrary Partners:

Safety knowledge contributed by: